Accueil
METAR-TAF:

METAR-TAF

Aéroports :

Station RAF de Northolt

Northolt, Angleterre

latitude: 51-33N, longitude: 000-25W, altitude: 38 m

Observation

Le bulletin a été fait il y a 1 heure et 20 minutes, à 20:50 UTC
Vent 8 kt de est
Température 7°C
Humidité 87%
Pression 1027 hPa
Visibilité 10 km ou plus
pas de nuages en-dessous de 1500 mètres et pas de cumulonimbus.

METAR: EGWU 172050Z 08008KT CAVOK 07/05 Q1027 NOSIG

Heure: 22:10 (22:10 UTC)

Prévision

Le bulletin a été fait il y a 2 heures et 20 minutes, à 19:50 UTC
Prévision valable du 17 à 21 UTC au 18 à 15 UTC
Vent 8 kt de est
Visibilité 10 km ou plus
pas de nuages en-dessous de 1500 mètres et pas de cumulonimbus.
Probabilité 40%
du 17 à 22 UTC au 18 à 10 UTC
Visibilité: 7000 m
brume sèche

TAF: EGWU 171950Z 1721/1815 08008KT CAVOK PROB40 1722/1810 7000 HZ

Observations et prévisions météorologiques de plus de 4000 aéroports (messages METAR et TAF).

Les stations disponibles sont représentées par des disques jaunes et rouges sur la carte.

Passer la souris dessus pour voir le nom de la station.

Cliquer dessus pour voir les observations et prévisions météorologiques.

Pour changer de carte: cliquez sur les boutons verts avec une croix noire pour zoomer, sur le bouton vert avec un tiret pour effectuer un zoom arrière, ou sur les flèches vertes pour les cartes adjacentes.


METAR-TAF: